createdAt,value
2017-03-02T00:00:27.637Z,0
2017-03-02T00:01:39.139Z,0
2017-03-02T00:02:50.659Z,0
2017-03-02T00:04:02.181Z,0
2017-03-02T00:05:13.683Z,0
2017-03-02T00:06:25.177Z,0
2017-03-02T00:07:36.660Z,0
2017-03-02T00:08:48.180Z,0
2017-03-02T00:09:59.713Z,0
2017-03-02T00:11:11.239Z,0
2017-03-02T00:12:22.753Z,0
2017-03-02T00:13:34.263Z,0
2017-03-02T00:14:45.767Z,0
2017-03-02T00:15:57.313Z,0
2017-03-02T00:17:08.815Z,0
2017-03-02T00:18:20.317Z,0
2017-03-02T00:19:31.827Z,0
2017-03-02T00:20:43.381Z,0
2017-03-02T00:21:54.859Z,0
2017-03-02T00:23:06.363Z,0
2017-03-02T00:24:17.878Z,0
2017-03-02T00:25:29.588Z,0
2017-03-02T00:26:41.289Z,0
2017-03-02T00:27:52.801Z,0
2017-03-02T00:29:04.273Z,0
2017-03-02T00:30:15.769Z,0
2017-03-02T00:31:27.331Z,0
2017-03-02T00:32:38.836Z,0
2017-03-02T00:33:50.347Z,0
2017-03-02T00:35:01.855Z,0
2017-03-02T00:36:13.351Z,0
2017-03-02T00:37:24.855Z,0
2017-03-02T00:38:36.369Z,0
2017-03-02T00:39:48.073Z,0
2017-03-02T00:40:59.765Z,0
2017-03-02T00:42:11.333Z,0
2017-03-02T00:43:22.817Z,0
2017-03-02T00:44:34.538Z,0
2017-03-02T00:45:46.022Z,0
2017-03-02T00:46:57.512Z,0
2017-03-02T00:48:09.057Z,0
2017-03-02T00:49:20.574Z,0
2017-03-02T00:50:32.082Z,0
2017-03-02T00:51:43.587Z,0
2017-03-02T00:52:55.336Z,0
2017-03-02T00:54:06.877Z,0
2017-03-02T00:55:18.569Z,0
2017-03-02T00:56:30.271Z,0
2017-03-02T00:57:41.790Z,0
2017-03-02T00:58:53.271Z,0
2017-03-02T01:00:04.776Z,0
2017-03-02T01:01:16.468Z,0
2017-03-02T01:02:27.969Z,0
2017-03-02T01:03:39.922Z,0
2017-03-02T01:04:51.655Z,0
2017-03-02T01:06:03.167Z,0
2017-03-02T01:07:14.876Z,0
2017-03-02T01:08:26.412Z,0
2017-03-02T01:09:38.122Z,0
2017-03-02T01:10:49.638Z,0
2017-03-02T01:12:01.348Z,0
2017-03-02T01:13:12.844Z,0
2017-03-02T01:14:24.368Z,0
2017-03-02T01:15:35.856Z,0
2017-03-02T01:16:47.376Z,0
2017-03-02T01:17:58.868Z,0
2017-03-02T01:19:10.573Z,0
2017-03-02T01:20:22.106Z,0
2017-03-02T01:21:33.796Z,0
2017-03-02T01:22:45.319Z,0
2017-03-02T01:23:56.831Z,0
2017-03-02T01:25:08.323Z,0
2017-03-02T01:26:19.827Z,0
2017-03-02T01:27:31.533Z,0
2017-03-02T01:28:43.034Z,0
2017-03-02T01:29:54.554Z,0
2017-03-02T01:31:06.098Z,0
2017-03-02T01:32:17.612Z,0
2017-03-02T01:33:29.334Z,0
2017-03-02T01:34:40.827Z,0
2017-03-02T01:35:52.355Z,0
2017-03-02T01:37:03.888Z,0
2017-03-02T01:38:15.402Z,0
2017-03-02T01:39:26.905Z,0
2017-03-02T01:40:38.439Z,0
2017-03-02T01:41:49.991Z,0
2017-03-02T01:43:01.701Z,0
2017-03-02T01:44:13.200Z,0
2017-03-02T01:45:24.894Z,0
2017-03-02T01:46:36.401Z,0
2017-03-02T01:47:47.895Z,0
2017-03-02T01:48:59.420Z,0
2017-03-02T01:50:10.923Z,0
2017-03-02T01:51:22.413Z,0
2017-03-02T01:52:34.179Z,0
2017-03-02T01:53:45.664Z,0
2017-03-02T01:54:57.164Z,0
2017-03-02T01:56:08.869Z,0
2017-03-02T01:57:20.569Z,0
2017-03-02T01:58:32.069Z,0
2017-03-02T01:59:43.565Z,0
2017-03-02T02:00:55.061Z,0
2017-03-02T02:02:06.765Z,0
2017-03-02T02:03:18.325Z,0
2017-03-02T02:04:29.854Z,0
2017-03-02T02:05:41.563Z,0
2017-03-02T02:06:53.062Z,0
2017-03-02T02:08:04.786Z,0
2017-03-02T02:09:16.319Z,0
2017-03-02T02:10:27.827Z,0
2017-03-02T02:11:39.506Z,0
2017-03-02T02:12:51.001Z,0
2017-03-02T02:14:02.577Z,0
2017-03-02T02:15:14.267Z,0
2017-03-02T02:16:25.978Z,0
2017-03-02T02:17:37.724Z,0
2017-03-02T02:18:49.232Z,0
2017-03-02T02:20:00.926Z,0
2017-03-02T02:21:12.424Z,0
2017-03-02T02:22:23.935Z,0
2017-03-02T02:23:35.418Z,0
2017-03-02T02:24:46.981Z,0
2017-03-02T02:25:58.483Z,0
2017-03-02T02:27:10.187Z,0
2017-03-02T02:28:21.688Z,0
2017-03-02T02:29:33.188Z,0
2017-03-02T02:30:44.896Z,0
2017-03-02T02:31:56.392Z,0
2017-03-02T02:33:08.104Z,0
2017-03-02T02:34:19.570Z,0
2017-03-02T02:35:31.115Z,0
2017-03-02T02:36:42.854Z,0
2017-03-02T02:37:54.339Z,0
2017-03-02T02:39:06.074Z,0
2017-03-02T02:40:17.606Z,0
2017-03-02T02:41:29.107Z,0
2017-03-02T02:42:40.615Z,0
2017-03-02T02:43:52.141Z,0
2017-03-02T02:45:03.867Z,0
2017-03-02T02:46:15.422Z,0
2017-03-02T02:47:26.909Z,0
2017-03-02T02:48:38.429Z,0
2017-03-02T02:49:49.897Z,0
2017-03-02T02:51:01.417Z,0
2017-03-02T02:52:12.895Z,0
2017-03-02T02:53:24.376Z,0
2017-03-02T02:54:35.875Z,0
2017-03-02T02:55:47.361Z,0
2017-03-02T02:56:58.905Z,0
2017-03-02T02:58:10.401Z,0
2017-03-02T02:59:21.899Z,0
2017-03-02T03:00:33.411Z,0
2017-03-02T03:01:44.924Z,0
2017-03-02T03:02:56.413Z,0
2017-03-02T03:04:07.949Z,0
2017-03-02T03:05:19.457Z,0
2017-03-02T03:06:30.965Z,0
2017-03-02T03:07:42.521Z,0
2017-03-02T03:08:54.040Z,0
2017-03-02T03:10:05.744Z,0
2017-03-02T03:11:17.246Z,0
2017-03-02T03:12:28.798Z,0
2017-03-02T03:13:40.301Z,0
2017-03-02T03:14:51.784Z,0
2017-03-02T03:16:03.278Z,0
2017-03-02T03:17:14.761Z,0
2017-03-02T03:18:26.301Z,0
2017-03-02T03:19:37.800Z,0
2017-03-02T03:20:49.288Z,0
2017-03-02T03:22:00.792Z,0
2017-03-02T03:23:12.312Z,0
2017-03-02T03:24:23.820Z,0
2017-03-02T03:25:35.350Z,0
2017-03-02T03:26:46.858Z,0
2017-03-02T03:27:58.354Z,0
2017-03-02T03:29:09.836Z,0
2017-03-02T03:30:21.389Z,0
2017-03-02T03:31:33.089Z,0
2017-03-02T03:32:44.574Z,0
2017-03-02T03:33:56.063Z,0
2017-03-02T03:35:07.769Z,0
2017-03-02T03:36:19.280Z,0
2017-03-02T03:37:30.984Z,0
2017-03-02T03:38:42.479Z,0
2017-03-02T03:39:54.015Z,0
2017-03-02T03:41:05.511Z,0
2017-03-02T03:42:17.240Z,0
2017-03-02T03:43:28.719Z,0
2017-03-02T03:44:40.200Z,0
2017-03-02T03:45:51.922Z,0
2017-03-02T03:47:03.637Z,0
2017-03-02T03:48:15.140Z,0
2017-03-02T03:49:26.838Z,0
2017-03-02T03:50:38.406Z,0
2017-03-02T03:51:49.910Z,0
2017-03-02T03:53:01.416Z,0
2017-03-02T03:54:12.934Z,0
2017-03-02T03:55:24.436Z,0
2017-03-02T03:56:35.948Z,0
2017-03-02T03:57:47.444Z,0
2017-03-02T03:58:58.943Z,0
2017-03-02T04:00:10.454Z,0
2017-03-02T04:01:21.993Z,0
2017-03-02T04:02:33.491Z,0
2017-03-02T04:03:44.975Z,0
2017-03-02T04:04:56.688Z,0
2017-03-02T04:06:08.174Z,0
2017-03-02T04:07:19.723Z,0
2017-03-02T04:08:31.829Z,0
2017-03-02T04:09:43.418Z,0
2017-03-02T04:10:54.906Z,0
2017-03-02T04:12:06.391Z,0
2017-03-02T04:13:17.915Z,0
2017-03-02T04:14:29.420Z,0
2017-03-02T04:15:40.922Z,0
2017-03-02T04:16:52.424Z,0
2017-03-02T04:18:03.974Z,0
2017-03-02T04:19:15.663Z,0
2017-03-02T04:20:27.362Z,0
2017-03-02T04:21:39.087Z,0
2017-03-02T04:22:50.572Z,0
2017-03-02T04:24:02.055Z,0
2017-03-02T04:25:13.556Z,0
2017-03-02T04:26:25.067Z,0
2017-03-02T04:27:36.581Z,0
2017-03-02T04:28:48.113Z,0
2017-03-02T04:29:59.819Z,0
2017-03-02T04:31:11.298Z,0
2017-03-02T04:32:22.812Z,0
2017-03-02T04:33:34.523Z,0
2017-03-02T04:34:46.016Z,0
2017-03-02T04:35:57.509Z,0
2017-03-02T04:37:09.014Z,0
2017-03-02T04:38:20.712Z,0
2017-03-02T04:39:32.266Z,0
2017-03-02T04:40:43.958Z,0
2017-03-02T04:41:55.455Z,0
2017-03-02T04:43:06.957Z,0
2017-03-02T04:44:18.461Z,0
2017-03-02T04:45:29.964Z,0
2017-03-02T04:46:41.466Z,0
2017-03-02T04:48:24.484Z,0
2017-03-02T04:49:36.045Z,0
2017-03-02T04:50:47.544Z,0
2017-03-02T04:51:59.055Z,0
2017-03-02T04:53:10.551Z,0
2017-03-02T04:54:22.254Z,0
2017-03-02T04:55:33.741Z,0
2017-03-02T04:56:45.231Z,0
2017-03-02T04:57:56.735Z,0
2017-03-02T04:59:08.213Z,0
2017-03-02T05:00:19.771Z,0
2017-03-02T05:01:31.322Z,0
2017-03-02T05:02:43.029Z,0
2017-03-02T05:03:54.521Z,0
2017-03-02T05:05:06.001Z,0
2017-03-02T05:06:17.529Z,0
2017-03-02T05:07:29.232Z,0
2017-03-02T05:08:40.724Z,0
2017-03-02T05:09:52.220Z,0
2017-03-02T05:11:03.790Z,0
2017-03-02T05:12:15.288Z,0
2017-03-02T05:13:26.798Z,0
2017-03-02T05:14:38.300Z,0
2017-03-02T05:15:49.789Z,0
2017-03-02T05:17:01.518Z,0
2017-03-02T05:18:13.002Z,0
2017-03-02T05:19:24.485Z,0
2017-03-02T05:20:36.184Z,0
2017-03-02T05:21:47.744Z,0
2017-03-02T05:22:59.220Z,0
2017-03-02T05:24:10.712Z,0
2017-03-02T05:25:22.400Z,0
2017-03-02T05:26:33.873Z,0
2017-03-02T05:27:45.382Z,0
2017-03-02T05:28:56.866Z,0
2017-03-02T05:30:08.363Z,0
2017-03-02T05:31:19.877Z,0
2017-03-02T05:32:31.619Z,0
2017-03-02T05:33:43.131Z,0
2017-03-02T05:34:54.632Z,0
2017-03-02T05:36:06.148Z,0
2017-03-02T05:37:17.665Z,0
2017-03-02T05:38:29.151Z,0
2017-03-02T05:39:40.654Z,0
2017-03-02T05:40:52.175Z,0
2017-03-02T05:42:03.686Z,0
2017-03-02T05:43:15.439Z,0
2017-03-02T05:44:26.952Z,0
2017-03-02T05:45:38.462Z,0
2017-03-02T05:46:49.964Z,4
2017-03-02T05:48:01.453Z,0
2017-03-02T05:49:12.923Z,4
2017-03-02T05:50:24.430Z,4
2017-03-02T05:51:35.935Z,4
2017-03-02T05:52:47.437Z,8
2017-03-02T05:53:59.006Z,8
2017-03-02T05:55:10.526Z,8
2017-03-02T05:56:22.028Z,8
2017-03-02T05:57:33.547Z,8
2017-03-02T05:58:45.057Z,8
2017-03-02T05:59:56.598Z,8
2017-03-02T06:01:08.078Z,12
2017-03-02T06:02:19.561Z,16
2017-03-02T06:03:31.086Z,24
2017-03-02T06:04:42.590Z,32
2017-03-02T06:05:54.091Z,36
2017-03-02T06:07:05.604Z,32
2017-03-02T06:08:17.494Z,36
2017-03-02T06:09:28.991Z,40
2017-03-02T06:10:40.482Z,44
2017-03-02T06:11:52.011Z,48
2017-03-02T06:13:03.715Z,68
2017-03-02T06:14:15.192Z,80
2017-03-02T06:15:26.702Z,96
2017-03-02T06:16:38.276Z,140
2017-03-02T06:17:49.794Z,200
2017-03-02T06:19:01.288Z,288
2017-03-02T06:20:12.809Z,400
2017-03-02T06:21:24.333Z,384
2017-03-02T06:22:35.826Z,388
2017-03-02T06:23:47.543Z,480
2017-03-02T06:24:59.063Z,580
2017-03-02T06:26:10.627Z,684
2017-03-02T06:27:22.104Z,808
2017-03-02T06:28:33.596Z,976
2017-03-02T06:29:45.306Z,1084
2017-03-02T06:30:56.825Z,1216
2017-03-02T06:32:08.333Z,1380
2017-03-02T06:33:20.223Z,1456
2017-03-02T06:34:31.721Z,1580
2017-03-02T06:35:43.625Z,1628
2017-03-02T06:36:55.174Z,1644
2017-03-02T06:38:06.887Z,1724
2017-03-02T06:39:18.405Z,1620
2017-03-02T06:40:29.913Z,1548
2017-03-02T06:41:41.427Z,1504
2017-03-02T06:42:52.980Z,1480
2017-03-02T06:44:04.478Z,1444
2017-03-02T06:45:15.981Z,1440
2017-03-02T06:46:27.468Z,1516
2017-03-02T06:47:39.032Z,1652
2017-03-02T06:48:50.737Z,1728
2017-03-02T06:50:02.245Z,1804
2017-03-02T06:51:13.980Z,1964
2017-03-02T06:52:25.465Z,2104
2017-03-02T06:53:37.020Z,2048
2017-03-02T06:54:48.516Z,1812
2017-03-02T06:56:00.033Z,1624
2017-03-02T06:57:11.535Z,1548
2017-03-02T06:58:23.037Z,1576
2017-03-02T06:59:34.795Z,1580
2017-03-02T07:00:46.312Z,1616
2017-03-02T07:01:57.831Z,1760
2017-03-02T07:03:09.324Z,1868
2017-03-02T07:04:21.097Z,1936
2017-03-02T07:05:32.593Z,1944
2017-03-02T07:06:44.095Z,1892
2017-03-02T07:07:55.597Z,1752
2017-03-02T07:09:07.097Z,1676
2017-03-02T07:10:18.595Z,1552
2017-03-02T07:11:30.130Z,1316
2017-03-02T07:12:41.632Z,1384
2017-03-02T07:13:53.146Z,1784
2017-03-02T07:15:04.693Z,2320
2017-03-02T07:16:16.212Z,2588
2017-03-02T07:17:27.733Z,2592
2017-03-02T07:18:39.235Z,2616
2017-03-02T07:19:50.728Z,3236
2017-03-02T07:21:02.295Z,3500
2017-03-02T07:22:13.811Z,3348
2017-03-02T07:23:25.310Z,3164
2017-03-02T07:24:36.789Z,6744
2017-03-02T07:25:48.355Z,2816
2017-03-02T07:26:59.863Z,2140
2017-03-02T07:28:11.396Z,2168
2017-03-02T07:29:22.898Z,2508
2017-03-02T07:30:34.398Z,3268
2017-03-02T07:31:45.902Z,3160
2017-03-02T07:32:57.398Z,2272
2017-03-02T07:34:08.895Z,2268
2017-03-02T07:35:20.409Z,2244
2017-03-02T07:36:31.943Z,2212
2017-03-02T07:37:43.440Z,2060
2017-03-02T07:38:54.955Z,2652
2017-03-02T07:40:06.456Z,4644
2017-03-02T07:41:17.971Z,6480
2017-03-02T07:42:29.469Z,4540
2017-03-02T07:43:40.968Z,2868
2017-03-02T07:44:52.488Z,2356
2017-03-02T07:46:03.989Z,1720
2017-03-02T07:47:15.495Z,1552
2017-03-02T07:48:27.083Z,1788
2017-03-02T07:49:38.597Z,1572
2017-03-02T07:50:50.092Z,1584
2017-03-02T07:52:01.605Z,2460
2017-03-02T07:53:13.111Z,2544
2017-03-02T07:54:24.606Z,1980
2017-03-02T07:55:36.114Z,1684
2017-03-02T07:56:47.807Z,1832
2017-03-02T07:57:59.383Z,1540
2017-03-02T07:59:10.871Z,1320
2017-03-02T08:00:22.358Z,1296
2017-03-02T08:01:34.268Z,1052
2017-03-02T08:02:45.770Z,968
2017-03-02T08:03:57.276Z,868
2017-03-02T08:05:08.780Z,704
2017-03-02T08:06:20.286Z,676
2017-03-02T08:07:31.764Z,676
2017-03-02T08:08:43.319Z,896
2017-03-02T08:09:55.028Z,1168
2017-03-02T08:11:06.520Z,1316
2017-03-02T08:12:18.420Z,1404
2017-03-02T08:13:29.918Z,1520
2017-03-02T08:14:41.649Z,1328
2017-03-02T08:15:53.160Z,1204
2017-03-02T08:17:04.690Z,1244
2017-03-02T08:18:16.159Z,1200
2017-03-02T08:19:27.693Z,1172
2017-03-02T08:20:39.184Z,1304
2017-03-02T08:21:50.671Z,1504
2017-03-02T08:23:02.347Z,1368
2017-03-02T08:24:13.845Z,1716
2017-03-02T08:25:25.409Z,2088
2017-03-02T08:26:36.910Z,2076
2017-03-02T08:27:48.416Z,2316
2017-03-02T08:28:59.920Z,2400
2017-03-02T08:30:11.429Z,2456
2017-03-02T08:31:22.897Z,2264
2017-03-02T08:32:34.386Z,2344
2017-03-02T08:33:46.264Z,2724
2017-03-02T08:34:57.970Z,2532
2017-03-02T08:36:09.522Z,2208
2017-03-02T08:37:21.243Z,1952
2017-03-02T08:38:32.743Z,1740
2017-03-02T08:39:44.259Z,1792
2017-03-02T08:40:55.744Z,2068
2017-03-02T08:42:07.227Z,2520
2017-03-02T08:43:18.731Z,2560
2017-03-02T08:44:30.242Z,2488
2017-03-02T08:45:42.212Z,2508
2017-03-02T08:46:53.911Z,2536
2017-03-02T08:48:05.393Z,2532
2017-03-02T08:49:16.894Z,2292
2017-03-02T08:50:28.413Z,2292
2017-03-02T08:51:40.102Z,2752
2017-03-02T08:52:52.003Z,3072
2017-03-02T08:54:03.500Z,3140
2017-03-02T08:55:15.034Z,3020
2017-03-02T08:56:26.586Z,3216
2017-03-02T08:57:38.292Z,3140
2017-03-02T08:58:50.012Z,3552
2017-03-02T09:00:01.511Z,3688
2017-03-02T09:01:13.040Z,3452
2017-03-02T09:02:24.566Z,3864
2017-03-02T09:03:36.265Z,3032
2017-03-02T09:04:47.749Z,3068
2017-03-02T09:05:59.251Z,2912
2017-03-02T09:07:10.801Z,3264
2017-03-02T09:08:22.302Z,3424
2017-03-02T09:09:33.791Z,3160
2017-03-02T09:10:45.488Z,2992
2017-03-02T09:11:56.982Z,3128
2017-03-02T09:13:08.515Z,2736
2017-03-02T09:14:20.014Z,2724
2017-03-02T09:15:31.513Z,2600
2017-03-02T09:16:43.014Z,2720
2017-03-02T09:17:54.526Z,2416
2017-03-02T09:19:06.051Z,2544
2017-03-02T09:20:17.561Z,2408
2017-03-02T09:21:29.256Z,2360
2017-03-02T09:22:40.968Z,2604
2017-03-02T09:23:52.526Z,2516
2017-03-02T09:25:04.015Z,2116
2017-03-02T09:26:15.516Z,2464
2017-03-02T09:27:27.023Z,2444
2017-03-02T09:28:38.506Z,1888
2017-03-02T09:29:50.066Z,2136
2017-03-02T09:31:01.748Z,2376
2017-03-02T09:32:13.261Z,2960
2017-03-02T09:33:24.747Z,2488
2017-03-02T09:34:36.500Z,2804
2017-03-02T09:35:48.004Z,2696
2017-03-02T09:36:59.523Z,2652
2017-03-02T09:38:11.045Z,2664
2017-03-02T09:39:22.575Z,2132
2017-03-02T09:40:34.294Z,1876
2017-03-02T09:41:45.783Z,2832
2017-03-02T09:42:57.267Z,3036
2017-03-02T09:44:08.979Z,3940
2017-03-02T09:45:20.520Z,3696
2017-03-02T09:46:32.010Z,4196
2017-03-02T09:47:43.513Z,3880
2017-03-02T09:48:55.221Z,3756
2017-03-02T09:50:06.736Z,4924
2017-03-02T09:51:18.239Z,5308
2017-03-02T09:52:29.727Z,5996
2017-03-02T09:53:41.425Z,5532
2017-03-02T09:54:52.910Z,5572
2017-03-02T09:56:04.673Z,5004
2017-03-02T09:57:16.149Z,5212
2017-03-02T09:58:27.651Z,5000
2017-03-02T09:59:39.329Z,4376
2017-03-02T10:00:50.831Z,4732
2017-03-02T10:02:02.519Z,5252
2017-03-02T10:03:14.031Z,5072
2017-03-02T10:04:25.558Z,5484
2017-03-02T10:05:37.066Z,5128
2017-03-02T10:06:48.612Z,4984
2017-03-02T10:08:00.545Z,4704
2017-03-02T10:09:12.048Z,5336
2017-03-02T10:10:23.527Z,4660
2017-03-02T10:11:35.050Z,4920
2017-03-02T10:12:46.534Z,6316
2017-03-02T10:13:58.039Z,5928
2017-03-02T10:15:09.550Z,6940
2017-03-02T10:16:21.058Z,4520
2017-03-02T10:17:32.625Z,4356
2017-03-02T10:18:44.101Z,4528
2017-03-02T10:19:55.594Z,5716
2017-03-02T10:21:07.094Z,4516
2017-03-02T10:22:18.584Z,3808
2017-03-02T10:23:30.083Z,3552
2017-03-02T10:24:42.007Z,3248
2017-03-02T10:25:54.042Z,3056
2017-03-02T10:27:05.564Z,3240
2017-03-02T10:28:17.111Z,3052
2017-03-02T10:29:28.614Z,2520
2017-03-02T10:30:40.100Z,2244
2017-03-02T10:31:51.589Z,2016
2017-03-02T10:33:03.483Z,2056
2017-03-02T10:34:15.022Z,2000
2017-03-02T10:35:26.514Z,2096
2017-03-02T10:36:38.220Z,2124
2017-03-02T10:37:49.707Z,2252
2017-03-02T10:39:01.266Z,2068
2017-03-02T10:40:12.764Z,2080
2017-03-02T10:41:24.291Z,2104
2017-03-02T10:42:35.810Z,2144
2017-03-02T10:43:47.506Z,2208
2017-03-02T10:44:58.995Z,2268
2017-03-02T10:46:10.487Z,2272
2017-03-02T10:47:21.999Z,2396
2017-03-02T10:48:33.495Z,2668
2017-03-02T10:49:45.015Z,2992
2017-03-02T10:50:56.704Z,3236
2017-03-02T10:52:08.200Z,3060
2017-03-02T10:53:19.697Z,2852
2017-03-02T10:54:31.213Z,3196
2017-03-02T10:55:42.753Z,2996
2017-03-02T10:56:54.290Z,3200
2017-03-02T10:58:05.786Z,3364
2017-03-02T10:59:17.283Z,3764
2017-03-02T11:00:29.055Z,4136
2017-03-02T11:01:40.572Z,4232
2017-03-02T11:02:52.297Z,4252
2017-03-02T11:04:03.775Z,4428
2017-03-02T11:05:15.301Z,4992
2017-03-02T11:06:26.811Z,5048
2017-03-02T11:07:38.312Z,4640
2017-03-02T11:08:49.800Z,5936
2017-03-02T11:10:01.293Z,6128
2017-03-02T11:11:12.840Z,5912
2017-03-02T11:12:24.349Z,5640
2017-03-02T11:13:35.855Z,5272
2017-03-02T11:14:47.351Z,5752
2017-03-02T11:15:58.855Z,5520
2017-03-02T11:17:10.347Z,5132
2017-03-02T11:18:22.464Z,4404
2017-03-02T11:19:33.942Z,4304
2017-03-02T11:20:45.437Z,4704
2017-03-02T11:21:57.212Z,4988
2017-03-02T11:23:08.712Z,5092
2017-03-02T11:24:20.419Z,5132
2017-03-02T11:25:32.103Z,5584
2017-03-02T11:26:43.596Z,5840
2017-03-02T11:27:55.089Z,5992
2017-03-02T11:29:06.584Z,5620
2017-03-02T11:30:18.089Z,4780
2017-03-02T11:31:29.594Z,4988
2017-03-02T11:32:41.163Z,5692
2017-03-02T11:33:52.673Z,5740
2017-03-02T11:35:04.187Z,5164
2017-03-02T11:36:15.694Z,4996
2017-03-02T11:37:27.381Z,5020
2017-03-02T11:38:38.854Z,4960
2017-03-02T11:39:50.366Z,5292
2017-03-02T11:41:01.869Z,6300
2017-03-02T11:42:13.578Z,6512
2017-03-02T11:43:25.172Z,5464
2017-03-02T11:44:36.650Z,4932
2017-03-02T11:45:48.157Z,4112
2017-03-02T11:46:59.856Z,3988
2017-03-02T11:48:11.376Z,4424
2017-03-02T11:49:22.896Z,4148
2017-03-02T11:50:34.393Z,4464
2017-03-02T11:51:45.916Z,4088
2017-03-02T11:52:57.632Z,3952
2017-03-02T11:54:09.392Z,3604
2017-03-02T11:55:20.887Z,3240
2017-03-02T11:56:32.368Z,3616
2017-03-02T11:57:43.864Z,3448
2017-03-02T11:58:55.359Z,3296
2017-03-02T12:00:07.068Z,3144
2017-03-02T12:01:18.558Z,3928
2017-03-02T12:02:30.044Z,4812
2017-03-02T12:03:41.576Z,4624
2017-03-02T12:04:53.344Z,4624
2017-03-02T12:06:04.862Z,6228
2017-03-02T12:07:16.359Z,5700
2017-03-02T12:08:27.862Z,4528
2017-03-02T12:09:39.562Z,4740
2017-03-02T12:10:51.235Z,5080
2017-03-02T12:12:02.737Z,5572
2017-03-02T12:13:14.416Z,4904
2017-03-02T12:14:25.928Z,5484
2017-03-02T12:15:37.499Z,5444
2017-03-02T12:16:49.005Z,4288
2017-03-02T12:18:00.536Z,4672
2017-03-02T12:19:12.028Z,5232
2017-03-02T12:20:23.718Z,5532
2017-03-02T12:21:35.459Z,5484
2017-03-02T12:22:46.975Z,4600
2017-03-02T12:23:58.482Z,3972
2017-03-02T12:25:10.005Z,4496
2017-03-02T12:26:21.784Z,4892
2017-03-02T12:27:33.305Z,5532
2017-03-02T12:28:44.811Z,4968
2017-03-02T12:29:56.306Z,5496
2017-03-02T12:31:07.836Z,6768
2017-03-02T12:32:19.602Z,4976
2017-03-02T12:33:31.101Z,5224
2017-03-02T12:34:42.804Z,4888
2017-03-02T12:35:54.712Z,3664
2017-03-02T12:37:06.456Z,3656
2017-03-02T12:38:17.952Z,4040
2017-03-02T12:39:29.451Z,3992
2017-03-02T12:40:40.936Z,4756
2017-03-02T12:41:52.640Z,5484
2017-03-02T12:43:04.128Z,5392
2017-03-02T12:44:15.618Z,8580
2017-03-02T12:45:27.113Z,10236
2017-03-02T12:46:38.820Z,9660
2017-03-02T12:47:50.380Z,12132
2017-03-02T12:49:01.897Z,14724
2017-03-02T12:50:13.398Z,10776
2017-03-02T12:51:24.886Z,9892
2017-03-02T12:52:36.452Z,9064
2017-03-02T12:53:47.958Z,8632
2017-03-02T12:54:59.662Z,8860
2017-03-02T12:56:11.169Z,9012
2017-03-02T12:57:22.862Z,9372
2017-03-02T12:58:34.410Z,9128
2017-03-02T12:59:45.928Z,8552
2017-03-02T13:00:57.432Z,8184
2017-03-02T13:02:08.929Z,8092
2017-03-02T13:03:20.623Z,8364
2017-03-02T13:04:32.118Z,8864
2017-03-02T13:05:43.608Z,8920
2017-03-02T13:06:55.108Z,7980
2017-03-02T13:08:06.633Z,7376
2017-03-02T13:09:18.197Z,6324
2017-03-02T13:10:29.693Z,5292
2017-03-02T13:11:41.189Z,5568
2017-03-02T13:12:52.700Z,5376
2017-03-02T13:14:04.416Z,5760
2017-03-02T13:15:15.947Z,6320
2017-03-02T13:16:27.439Z,7012
2017-03-02T13:17:38.968Z,7360
2017-03-02T13:18:50.459Z,7456
2017-03-02T13:20:02.002Z,7092
2017-03-02T13:21:13.497Z,7312
2017-03-02T13:22:24.997Z,7992
2017-03-02T13:23:36.482Z,7940
2017-03-02T13:24:47.976Z,7768
2017-03-02T13:25:59.474Z,7620
2017-03-02T13:27:10.974Z,7628
2017-03-02T13:28:22.472Z,8044
2017-03-02T13:29:33.970Z,7904
2017-03-02T13:30:45.516Z,7168
2017-03-02T13:31:57.245Z,6780
2017-03-02T13:33:08.762Z,6236
2017-03-02T13:34:20.260Z,6292
2017-03-02T13:35:31.756Z,5540
2017-03-02T13:36:43.241Z,5776
2017-03-02T13:37:54.961Z,5172
2017-03-02T13:39:06.487Z,4100
2017-03-02T13:40:18.017Z,3684
2017-03-02T13:41:29.560Z,4216
2017-03-02T13:42:41.241Z,4492
2017-03-02T13:43:52.721Z,4584
2017-03-02T13:45:04.250Z,4828
2017-03-02T13:46:15.764Z,4856
2017-03-02T13:47:27.265Z,4988
2017-03-02T13:48:38.757Z,5120
2017-03-02T13:49:50.486Z,6236
2017-03-02T13:51:01.983Z,7108
2017-03-02T13:52:13.530Z,7620
2017-03-02T13:53:25.032Z,7864
2017-03-02T13:54:36.543Z,8008
2017-03-02T13:55:48.082Z,7912
2017-03-02T13:56:59.586Z,7904
2017-03-02T13:58:11.097Z,7908
2017-03-02T13:59:22.598Z,8304
2017-03-02T14:00:34.110Z,8480
2017-03-02T14:01:45.821Z,8248
2017-03-02T14:02:57.372Z,9100
2017-03-02T14:04:08.870Z,9428
2017-03-02T14:05:20.408Z,9452
2017-03-02T14:06:31.935Z,9724
2017-03-02T14:07:43.458Z,9216
2017-03-02T14:08:55.170Z,8348
2017-03-02T14:10:06.727Z,8036
2017-03-02T14:11:18.241Z,8652
2017-03-02T14:12:29.771Z,8248
2017-03-02T14:13:41.324Z,7996
2017-03-02T14:14:52.806Z,8272
2017-03-02T14:16:04.314Z,7952
2017-03-02T14:17:15.837Z,8136
2017-03-02T14:18:27.542Z,7580
2017-03-02T14:19:39.039Z,8104
2017-03-02T14:20:50.739Z,6288
2017-03-02T14:22:02.480Z,5560
2017-03-02T14:23:13.996Z,5204
2017-03-02T14:24:25.542Z,4508
2017-03-02T14:25:37.051Z,4120
2017-03-02T14:26:48.553Z,4424
2017-03-02T14:28:00.068Z,5520
2017-03-02T14:29:11.585Z,8224
2017-03-02T14:30:23.129Z,9192
2017-03-02T14:31:34.870Z,8572
2017-03-02T14:32:46.575Z,7616
2017-03-02T14:33:58.072Z,7024
2017-03-02T14:35:09.819Z,6488
2017-03-02T14:36:21.335Z,5560
2017-03-02T14:37:32.860Z,5572
2017-03-02T14:38:44.349Z,5692
2017-03-02T14:39:55.843Z,5328
2017-03-02T14:41:07.351Z,4536
2017-03-02T14:42:18.858Z,3932
2017-03-02T14:43:30.563Z,3512
2017-03-02T14:44:42.284Z,3120
2017-03-02T14:45:53.848Z,3232
2017-03-02T14:47:05.350Z,3368
2017-03-02T14:48:17.051Z,3148
2017-03-02T14:49:28.571Z,2796
2017-03-02T14:50:40.061Z,2984
2017-03-02T14:51:51.571Z,2960
2017-03-02T14:53:03.082Z,2928
2017-03-02T14:54:14.593Z,2712
2017-03-02T14:55:26.108Z,2404
2017-03-02T14:56:37.680Z,2008
2017-03-02T14:57:49.211Z,2068
2017-03-02T14:59:00.697Z,2056
2017-03-02T15:00:12.195Z,2268
2017-03-02T15:01:23.711Z,2180
2017-03-02T15:02:35.261Z,1908
2017-03-02T15:03:46.775Z,1396
2017-03-02T15:04:58.270Z,1224
2017-03-02T15:06:09.967Z,1044
2017-03-02T15:07:21.459Z,1152
2017-03-02T15:08:32.998Z,1368
2017-03-02T15:09:44.492Z,1380
2017-03-02T15:10:55.995Z,1400
2017-03-02T15:12:07.495Z,1964
2017-03-02T15:13:18.977Z,2264
2017-03-02T15:14:30.466Z,2816
2017-03-02T15:15:41.954Z,3500
2017-03-02T15:16:53.665Z,2996
2017-03-02T15:18:05.249Z,2164
2017-03-02T15:19:16.760Z,2068
2017-03-02T15:20:28.263Z,2380
2017-03-02T15:21:39.749Z,3152
2017-03-02T15:22:51.246Z,3356
2017-03-02T15:24:02.758Z,2960
2017-03-02T15:25:14.465Z,2560
2017-03-02T15:26:25.986Z,2196
2017-03-02T15:27:37.492Z,2184
2017-03-02T15:28:49.069Z,2600
2017-03-02T15:30:00.600Z,3020
2017-03-02T15:31:12.331Z,3144
2017-03-02T15:32:23.830Z,3036
2017-03-02T15:33:35.323Z,2988
2017-03-02T15:34:47.026Z,3048
2017-03-02T15:35:58.747Z,2660
2017-03-02T15:37:10.236Z,2332
2017-03-02T15:38:21.906Z,2108
2017-03-02T15:39:33.466Z,1968
2017-03-02T15:40:44.961Z,2252
2017-03-02T15:41:56.474Z,2336
2017-03-02T15:43:07.994Z,2204
2017-03-02T15:44:19.500Z,1876
2017-03-02T15:45:30.988Z,1860
2017-03-02T15:46:42.685Z,2280
2017-03-02T15:47:54.222Z,2212
2017-03-02T15:49:05.722Z,1740
2017-03-02T15:50:17.252Z,1340
2017-03-02T15:51:28.779Z,1144
2017-03-02T15:52:40.299Z,1068
2017-03-02T15:53:51.801Z,1136
2017-03-02T15:55:03.301Z,1148
2017-03-02T15:56:14.856Z,1476
2017-03-02T15:57:26.375Z,2208
2017-03-02T15:58:37.875Z,2432
2017-03-02T15:59:49.788Z,2032
2017-03-02T16:01:01.326Z,1284
2017-03-02T16:02:12.816Z,924
2017-03-02T16:03:24.337Z,688
2017-03-02T16:04:35.844Z,428
2017-03-02T16:05:47.343Z,364
2017-03-02T16:06:59.053Z,384
2017-03-02T16:08:10.566Z,516
2017-03-02T16:09:22.079Z,692
2017-03-02T16:10:33.600Z,896
2017-03-02T16:11:45.387Z,924
2017-03-02T16:12:56.889Z,908
2017-03-02T16:14:08.416Z,996
2017-03-02T16:15:20.133Z,1276
2017-03-02T16:16:31.850Z,1824
2017-03-02T16:17:43.372Z,2100
2017-03-02T16:18:55.059Z,1992
2017-03-02T16:20:06.781Z,1884
2017-03-02T16:21:18.297Z,1556
2017-03-02T16:22:29.832Z,1532
2017-03-02T16:23:41.336Z,1360
2017-03-02T16:24:52.838Z,1216
2017-03-02T16:26:04.355Z,808
2017-03-02T16:27:15.863Z,624
2017-03-02T16:28:27.362Z,580
2017-03-02T16:29:38.829Z,568
2017-03-02T16:30:50.338Z,820